嘉手納基地の過去48時間の天気

嘉手納基地 (Kadena ab)

現在時刻: 10/23 20:32 JST (10/23 11:32 UTC) 以下の時間は現地時間です。

過去48時間のMETAR気象情報
時間 風向 風速(m/s) 視程 気温(℃) 湿度(%) 気圧(hPa) 天気現象
23 19:56 西 4 10km以上 24.5 74 1012
23 18:56 西 5 10km以上 24.5 75 1011.4
23 18:26 西 3 10km以上 25 74 1011.1
23 18:06 西 4 10km以上 25 74 1010.7
23 17:56 西 4 10km以上 25.2 75 1010.7
23 16:56 西 6 10km以上 26.6 69 1010.4
23 15:56 西 6 10km以上 27.5 70 1010.3
23 15:26 西 5 10km以上 27 70 1010
23 15:16 西 6 10km以上 28 70 1010
23 15:06 西 7 10km以上 28 70 1010
23 14:56 西 7 10km以上 27.5 72 1010
23 13:56 西 6 10km以上 28.6 71 1010.3
23 13:36 西 6 10km以上 28 74 1010.3
23 13:26 西南西 5 10km以上 29 66 1010.3
23 13:06 西南西 6 10km以上 30 66 1010.7
23 12:56 西南西 5 10km以上 29.8 67 1010.7
23 11:56 南西 6 10km以上 29.5 67 1011.7
23 10:56 南西 6 10km以上 29.1 68 1012
23 09:56 南南西 4 10km以上 27.9 70 1012.4
23 08:56 南南西 4 10km以上 26.8 74 1012.4
23 07:56 3 10km以上 24.6 95 1011.7
23 06:56 2 10km以上 21.4 93 1011.1
23 05:56 2 10km以上 20.6 92 1009.7
23 04:56 静穏 0 10km以上 21.7 92 1009.7
23 03:56 南南東 2 10km以上 22.4 93 1010
22 05:56 東北東 3 10km以上 22.4 94 1011 霧雨
22 05:14 北東 3 10km以上 22 94 1010.3
22 05:06 北東 4 10km以上 22 94 1010 弱い霧雨
22 04:56 北東 4 10km以上 21.9 92 1010 弱い雨
22 04:41 北東 4 10km以上 22 94 1009.7 弱い雨
22 04:31 北東 5 4450m 23 89 1010 強い雨 もや
22 04:01 北東 5 10km以上 23 89 1010.3 弱い霧雨
22 03:56 東北東 3 10km以上 22.7 92 1010.3
22 02:56 北東 4 10km以上 22.6 92 1010.7
22 01:56 北東 6 10km以上 22.9 91 1011
22 01:24 北東 3 10km以上 23 89 1011.3
22 00:56 北東 6 10km以上 23 89 1012
21 23:56 北東 3 10km以上 22.6 88 1011.7
21 22:56 北東 2 10km以上 22.9 86 1011.7
21 20:56 北東 3 10km以上 23.9 85 1011.7
RODN 231056Z AUTO 28007KT 10SM FEW024 SCT033 25/20 A2987 RMK AO2 SLP120 T02450195 $
RODN 230956Z AUTO 27009KT 10SM FEW022 SCT032 25/20 A2985 RMK AO2 SLP114 T02450197 $
RODN 230926Z AUTO 28006KT 10SM SCT021 SCT031 25/20 A2984 RMK AO2 SLP111 $
RODN 230906Z AUTO 28007KT 10SM BKN022 BKN031 25/20 A2983 RMK AO2 CIG 022V031 SLP107 $
RODN 230856Z AUTO 28007KT 10SM SCT023 BKN031 25/20 A2983 RMK AO2 SLP107 T02520204 52008 $
RODN 230756Z AUTO 27011KT 10SM SCT024 27/20 A2982 RMK AO2 SLP104 T02660204 $
RODN 230656Z AUTO 26012KT 10SM FEW022 28/22 A2982 RMK AO2 SLP103 T02750215 $
RODN 230626Z AUTO 26010KT 10SM SCT021 BKN055 27/21 A2981 RMK AO2 SLP100 $
RODN 230616Z AUTO 26012KT 10SM BKN021 28/22 A2981 RMK AO2 SLP100 $
RODN 230606Z AUTO 28013KT 10SM BKN019 BKN045 BKN055 28/22 A2981 RMK AO2 SLP100 $
RODN 230556Z AUTO 26014KT 10SM SCT019 BKN027 BKN045 BKN055 28/22 A2981 RMK AO2 CIG 027V055 BKN027 V SCT CIG 020 RWY05 SLP100 T02750220 10300 20269 57017 $
RODN 230456Z AUTO 28011KT 10SM FEW018 SCT043 29/23 A2982 RMK AO2 SLP103 T02860228 $
RODN 230436Z AUTO 26012KT 10SM SCT019 SCT025 28/23 A2982 RMK AO2 SLP103 $
RODN 230426Z AUTO 24010KT 10SM BKN019 BKN025 29/22 A2982 RMK AO2 CIG 019V026 BKN019 V SCT SLP103 $
RODN 230406Z AUTO 24011KT 10SM SCT018 SCT027 30/23 A2983 RMK AO2 SLP107 $
RODN 230356Z AUTO 24010KT 10SM BKN019 30/23 A2983 RMK AO2 SLP107 T02980230 $
RODN 230256Z AUTO 22012KT 10SM CLR 30/23 A2986 RMK AO2 SLP117 T02950227 58007 $
RODN 230156Z AUTO 23011KT 10SM CLR 29/23 A2987 RMK AO2 SLP120 T02910225 $
RODN 230056Z AUTO 21008KT 10SM FEW025 28/22 A2988 RMK AO2 SLP124 T02790219 $
RODN 222356Z AUTO 20008KT 10SM CLR 27/22 A2988 RMK AO2 SLP124 70010 T02680217 10268 20204 52025 $
RODN 222256Z AUTO 19006KT 10SM CLR 25/24 A2986 RMK AO2 SLP117 T02460237 $
RODN 222156Z AUTO 19004KT 10SM CLR 21/20 A2984 RMK AO2 SLP111 T02140202 $
RODN 222056Z AUTO 19003KT 10SM CLR 21/19 A2980 RMK AO2 SLP097 T02060192 55009 $
RODN 221956Z AUTO 00000KT 10SM CLR 22/20 A2980 RMK AO2 SLP097 T02170203 $
RODN 221856Z AUTO 16004KT 10SM CLR 22/21 A2981 RMK AO2 SLP100 T02240212 $
RODN 212056Z AUTO 07005KT 10SM DZ FEW016 FEW021 BKN047 22/21 A2984 RMK AO2 RAE00DZB00E14DZB51 SLP110 P0000 60006 T02240214 53006 $
RODN 212014Z AUTO 05006KT 10SM FEW021 BKN040 OVC049 22/21 A2982 RMK AO2 RAE00DZB00E14 SLP103 $
RODN 212006Z AUTO 05007KT 10SM -DZ SCT024 OVC046 22/21 A2981 RMK AO2 RAE00DZB00 SLP100 $
RODN 211956Z AUTO 05007KT 10SM -RA BKN023 OVC040 22/21 A2981 RMK AO2 DZB01E04RAB04E14DZB14E16RAB16 SLP100 P0006 T02190205 $
RODN 211941Z AUTO 04008KT 10SM -RA BKN027 OVC036 22/21 A2980 RMK AO2 VIS 2 3/4 RWY23 DZB01E04RAB04E14DZB14E16RAB16 CIG 021V028 SLP097 $
RODN 211931Z AUTO 05009KT 2 3/4SM +RA BR FEW001 BKN021 BKN028 OVC038 23/21 A2981 RMK AO2 VIS 2 1/2V7 DZB01E04RAB04E14DZB14E16RAB16 CIG 021V038 SLP100 $
RODN 211901Z AUTO 05010KT 10SM -DZ FEW020 FEW028 BKN038 23/21 A2982 RMK AO2 DZB01 SLP103 $
RODN 211856Z AUTO 07005KT 10SM FEW019 SCT028 BKN038 23/21 A2982 RMK AO2 LTG DSNT S SLP103 T02270213 $
RODN 211756Z COR 05007KT 10SM BKN055 23/21 A2983 RMK AO2 SLP107 60000 T02260212 10241 20225 58010 $ COR 1806
RODN 211656Z AUTO 05011KT 10SM SCT031 SCT060 BKN120 23/21 A2984 RMK AO2 DZB18E24 SLP110 P0000 T02290213 $
RODN 211624Z 05006KT 10SM FEW037 OVC047 23/21 A2985 RMK AO2A DZB18E24 SLP113 $
RODN 211556Z COR AUTO 05011KT 10SM BKN030 BKN050 23/21 A2987 RMK AO2 DZB18E56 SLPNO ALSTG ESTMD P0000 $ COR 1558
RODN 211456Z AUTO 04005KT 10SM SCT055 23/21 A2986 RMK AO2 SLP117 T02260205 403020225 58001 $
RODN 211356Z AUTO 05004KT 10SM FEW050 23/20 A2986 RMK AO2 SLP117 T02290204 $
RODN 211156Z AUTO 04005KT 10SM BKN050 24/21 A2986 RMK AO2 SLP117 T02390212 10298 20239 52020 $